YTEF/TEF METAR and TAF weather

Enter ICAO airport designator
Station Type Date Time Source
YTEF METAR 2021/04/13 07:00 UTC NOAA

YTEF 130700Z AUTO 34011KT 9999 // NCD 36/13 Q1009


Station Type Date Time Source
YTEF Decoded METAR 2021/04/13 07:00 UTC NOAA

Station name not available
Apr 13, 2021 - 03:00 AM EDT / 2021.04.13 0700 UTC
Wind: from the NNW (340 degrees) at 13 MPH (11 KT):0
Visibility: greater than 7 mile(s):0
Temperature: 96 F (36 C)
Heat index: 94.1 F (34.5 C):1
Dew Point: 55 F (13 C)
Relative Humidity: 25%
Pressure (altimeter): 29.80 in. Hg (1009 hPa)
ob: YTEF 130700Z AUTO 34011KT 9999 // NCD 36/13 Q1009
cycle: 7

Station Type Date Time Source
YTEF TAF 2017/06/24 02:03 UTC NOAA

TAF TAF YTEF 240051Z 2402/2414 12005KT CAVOK
FM240500 33005KT 9999 -SHRA SCT060 BKN100

Example: see airport list